sensor_id;sensor_type;location;lat;lon;timestamp;P1;durP1;ratioP1;P2;durP2;ratioP2
61356;SDS011;47227;46.752;23.576;2023-12-04T00:00:11;9.90;;;6.70;;
61356;SDS011;47227;46.752;23.576;2023-12-04T00:03:00;9.10;;;6.30;;
61356;SDS011;47227;46.752;23.576;2023-12-04T00:05:29;9.40;;;6.10;;
61356;SDS011;47227;46.752;23.576;2023-12-04T00:07:58;10.50;;;6.80;;
61356;SDS011;47227;46.752;23.576;2023-12-04T00:10:27;11.10;;;6.90;;
61356;SDS011;47227;46.752;23.576;2023-12-04T00:12:55;10.50;;;6.70;;
61356;SDS011;47227;46.752;23.576;2023-12-04T00:15:24;8.70;;;6.60;;
61356;SDS011;47227;46.752;23.576;2023-12-04T00:17:52;11.70;;;7.40;;
61356;SDS011;47227;46.752;23.576;2023-12-04T00:20:21;9.20;;;7.20;;
61356;SDS011;47227;46.752;23.576;2023-12-04T00:22:49;14.70;;;9.30;;
61356;SDS011;47227;46.752;23.576;2023-12-04T00:25:18;13.00;;;8.00;;
61356;SDS011;47227;46.752;23.576;2023-12-04T00:27:46;11.90;;;8.20;;
61356;SDS011;47227;46.752;23.576;2023-12-04T00:30:15;16.90;;;10.10;;
61356;SDS011;47227;46.752;23.576;2023-12-04T00:32:43;14.90;;;8.50;;
61356;SDS011;47227;46.752;23.576;2023-12-04T00:35:12;13.40;;;7.20;;
61356;SDS011;47227;46.752;23.576;2023-12-04T00:37:41;10.70;;;7.40;;
61356;SDS011;47227;46.752;23.576;2023-12-04T00:40:10;8.30;;;6.50;;
61356;SDS011;47227;46.752;23.576;2023-12-04T00:42:38;11.10;;;7.00;;
61356;SDS011;47227;46.752;23.576;2023-12-04T00:45:07;13.30;;;7.40;;
61356;SDS011;47227;46.752;23.576;2023-12-04T00:47:36;11.30;;;7.00;;
61356;SDS011;47227;46.752;23.576;2023-12-04T00:50:05;11.20;;;6.80;;
61356;SDS011;47227;46.752;23.576;2023-12-04T00:52:34;12.80;;;7.70;;
61356;SDS011;47227;46.752;23.576;2023-12-04T00:55:02;11.10;;;7.10;;
61356;SDS011;47227;46.752;23.576;2023-12-04T00:57:31;15.20;;;7.20;;
61356;SDS011;47227;46.752;23.576;2023-12-04T01:00:00;9.90;;;7.00;;
61356;SDS011;47227;46.752;23.576;2023-12-04T01:02:29;9.50;;;7.00;;
61356;SDS011;47227;46.752;23.576;2023-12-04T01:04:58;12.60;;;7.50;;
61356;SDS011;47227;46.752;23.576;2023-12-04T01:07:27;10.10;;;6.60;;
61356;SDS011;47227;46.752;23.576;2023-12-04T01:09:55;12.00;;;7.10;;
61356;SDS011;47227;46.752;23.576;2023-12-04T01:12:24;11.00;;;7.10;;
61356;SDS011;47227;46.752;23.576;2023-12-04T01:14:52;10.30;;;6.80;;
61356;SDS011;47227;46.752;23.576;2023-12-04T01:17:21;11.00;;;7.00;;
61356;SDS011;47227;46.752;23.576;2023-12-04T01:19:50;10.40;;;7.10;;
61356;SDS011;47227;46.752;23.576;2023-12-04T01:22:18;10.10;;;6.90;;
61356;SDS011;47227;46.752;23.576;2023-12-04T01:24:47;12.40;;;7.50;;
61356;SDS011;47227;46.752;23.576;2023-12-04T01:27:15;12.00;;;7.80;;
61356;SDS011;47227;46.752;23.576;2023-12-04T01:29:44;12.80;;;7.90;;
61356;SDS011;47227;46.752;23.576;2023-12-04T01:32:12;10.30;;;6.60;;
61356;SDS011;47227;46.752;23.576;2023-12-04T01:34:40;12.40;;;8.30;;
61356;SDS011;47227;46.752;23.576;2023-12-04T01:37:09;13.00;;;8.10;;
61356;SDS011;47227;46.752;23.576;2023-12-04T01:39:37;14.40;;;8.50;;
61356;SDS011;47227;46.752;23.576;2023-12-04T01:42:06;15.30;;;7.40;;
61356;SDS011;47227;46.752;23.576;2023-12-04T01:44:34;10.80;;;7.50;;
61356;SDS011;47227;46.752;23.576;2023-12-04T01:47:04;12.10;;;7.70;;
61356;SDS011;47227;46.752;23.576;2023-12-04T01:49:32;9.60;;;6.90;;
61356;SDS011;47227;46.752;23.576;2023-12-04T01:52:01;10.60;;;6.90;;
61356;SDS011;47227;46.752;23.576;2023-12-04T01:54:30;8.80;;;5.80;;
61356;SDS011;47227;46.752;23.576;2023-12-04T01:57:00;9.40;;;6.50;;
61356;SDS011;47227;46.752;23.576;2023-12-04T01:59:30;11.00;;;6.60;;
61356;SDS011;47227;46.752;23.576;2023-12-04T02:01:59;8.80;;;6.00;;
61356;SDS011;47227;46.752;23.576;2023-12-04T02:04:29;11.40;;;7.00;;
61356;SDS011;47227;46.752;23.576;2023-12-04T02:07:00;9.70;;;5.50;;
61356;SDS011;47227;46.752;23.576;2023-12-04T02:09:29;10.80;;;6.60;;
61356;SDS011;47227;46.752;23.576;2023-12-04T02:11:59;9.60;;;6.30;;
61356;SDS011;47227;46.752;23.576;2023-12-04T02:14:28;9.10;;;6.10;;
61356;SDS011;47227;46.752;23.576;2023-12-04T02:16:56;9.00;;;6.30;;
61356;SDS011;47227;46.752;23.576;2023-12-04T02:19:26;9.00;;;6.00;;
61356;SDS011;47227;46.752;23.576;2023-12-04T02:21:55;8.90;;;6.00;;
61356;SDS011;47227;46.752;23.576;2023-12-04T02:24:23;9.70;;;6.40;;
61356;SDS011;47227;46.752;23.576;2023-12-04T02:26:54;8.70;;;6.10;;
61356;SDS011;47227;46.752;23.576;2023-12-04T02:29:29;7.60;;;5.40;;
61356;SDS011;47227;46.752;23.576;2023-12-04T02:32:00;9.30;;;5.40;;
61356;SDS011;47227;46.752;23.576;2023-12-04T02:34:32;8.30;;;6.00;;
61356;SDS011;47227;46.752;23.576;2023-12-04T02:37:02;9.80;;;6.20;;
61356;SDS011;47227;46.752;23.576;2023-12-04T02:39:32;9.90;;;6.60;;
61356;SDS011;47227;46.752;23.576;2023-12-04T02:42:01;8.20;;;5.70;;
61356;SDS011;47227;46.752;23.576;2023-12-04T02:44:29;9.20;;;6.10;;
61356;SDS011;47227;46.752;23.576;2023-12-04T02:46:57;8.40;;;6.10;;
61356;SDS011;47227;46.752;23.576;2023-12-04T02:49:26;8.90;;;5.60;;
61356;SDS011;47227;46.752;23.576;2023-12-04T02:51:55;12.70;;;7.00;;
61356;SDS011;47227;46.752;23.576;2023-12-04T02:54:23;17.60;;;9.70;;
61356;SDS011;47227;46.752;23.576;2023-12-04T02:56:52;10.20;;;6.80;;
61356;SDS011;47227;46.752;23.576;2023-12-04T02:59:20;10.90;;;6.40;;
61356;SDS011;47227;46.752;23.576;2023-12-04T03:01:48;8.20;;;5.70;;
61356;SDS011;47227;46.752;23.576;2023-12-04T03:04:18;8.70;;;5.90;;
61356;SDS011;47227;46.752;23.576;2023-12-04T03:06:47;8.10;;;6.00;;
61356;SDS011;47227;46.752;23.576;2023-12-04T03:09:16;9.30;;;6.00;;
61356;SDS011;47227;46.752;23.576;2023-12-04T03:11:44;9.50;;;5.90;;
61356;SDS011;47227;46.752;23.576;2023-12-04T03:14:12;9.00;;;5.90;;
61356;SDS011;47227;46.752;23.576;2023-12-04T03:16:41;7.00;;;5.40;;
61356;SDS011;47227;46.752;23.576;2023-12-04T03:19:09;9.30;;;6.30;;
61356;SDS011;47227;46.752;23.576;2023-12-04T03:21:38;9.40;;;5.70;;
61356;SDS011;47227;46.752;23.576;2023-12-04T03:24:06;9.10;;;6.00;;
61356;SDS011;47227;46.752;23.576;2023-12-04T03:26:36;10.60;;;5.70;;
61356;SDS011;47227;46.752;23.576;2023-12-04T03:29:05;8.10;;;5.70;;
61356;SDS011;47227;46.752;23.576;2023-12-04T03:31:33;9.70;;;6.40;;
61356;SDS011;47227;46.752;23.576;2023-12-04T03:34:02;8.90;;;6.10;;
61356;SDS011;47227;46.752;23.576;2023-12-04T03:36:30;10.20;;;6.30;;
61356;SDS011;47227;46.752;23.576;2023-12-04T03:38:59;8.40;;;5.90;;
61356;SDS011;47227;46.752;23.576;2023-12-04T03:41:28;9.20;;;6.00;;
61356;SDS011;47227;46.752;23.576;2023-12-04T03:43:56;9.80;;;6.40;;
61356;SDS011;47227;46.752;23.576;2023-12-04T03:46:24;8.40;;;5.70;;
61356;SDS011;47227;46.752;23.576;2023-12-04T03:48:53;8.30;;;5.90;;
61356;SDS011;47227;46.752;23.576;2023-12-04T03:51:23;9.40;;;5.40;;
61356;SDS011;47227;46.752;23.576;2023-12-04T03:53:51;8.20;;;5.60;;
61356;SDS011;47227;46.752;23.576;2023-12-04T03:56:20;9.30;;;5.50;;
61356;SDS011;47227;46.752;23.576;2023-12-04T03:58:48;7.40;;;5.50;;
61356;SDS011;47227;46.752;23.576;2023-12-04T04:01:17;8.20;;;5.50;;
61356;SDS011;47227;46.752;23.576;2023-12-04T04:03:46;5.70;;;4.80;;
61356;SDS011;47227;46.752;23.576;2023-12-04T04:06:14;6.20;;;4.80;;
61356;SDS011;47227;46.752;23.576;2023-12-04T04:08:43;8.60;;;5.20;;
61356;SDS011;47227;46.752;23.576;2023-12-04T04:11:11;7.70;;;5.60;;
61356;SDS011;47227;46.752;23.576;2023-12-04T04:13:40;8.10;;;5.00;;
61356;SDS011;47227;46.752;23.576;2023-12-04T04:16:13;6.50;;;4.80;;
61356;SDS011;47227;46.752;23.576;2023-12-04T04:18:44;7.00;;;4.60;;
61356;SDS011;47227;46.752;23.576;2023-12-04T04:21:13;7.00;;;5.30;;
61356;SDS011;47227;46.752;23.576;2023-12-04T04:23:41;11.80;;;6.20;;
61356;SDS011;47227;46.752;23.576;2023-12-04T04:26:09;7.50;;;5.50;;
61356;SDS011;47227;46.752;23.576;2023-12-04T04:28:38;11.30;;;6.60;;
61356;SDS011;47227;46.752;23.576;2023-12-04T04:31:07;17.20;;;7.80;;
61356;SDS011;47227;46.752;23.576;2023-12-04T04:33:35;11.10;;;6.40;;
61356;SDS011;47227;46.752;23.576;2023-12-04T04:36:04;10.70;;;6.70;;
61356;SDS011;47227;46.752;23.576;2023-12-04T04:38:33;11.90;;;6.40;;
61356;SDS011;47227;46.752;23.576;2023-12-04T04:41:01;8.10;;;6.20;;
61356;SDS011;47227;46.752;23.576;2023-12-04T04:43:30;9.20;;;6.60;;
61356;SDS011;47227;46.752;23.576;2023-12-04T04:46:00;10.50;;;6.50;;
61356;SDS011;47227;46.752;23.576;2023-12-04T04:48:29;16.10;;;8.70;;
61356;SDS011;47227;46.752;23.576;2023-12-04T04:50:57;12.70;;;8.40;;
61356;SDS011;47227;46.752;23.576;2023-12-04T04:53:26;15.10;;;9.00;;
61356;SDS011;47227;46.752;23.576;2023-12-04T04:55:54;13.80;;;7.90;;
61356;SDS011;47227;46.752;23.576;2023-12-04T04:58:23;11.60;;;7.40;;
61356;SDS011;47227;46.752;23.576;2023-12-04T05:00:51;12.50;;;7.70;;
61356;SDS011;47227;46.752;23.576;2023-12-04T05:03:20;25.00;;;13.10;;
61356;SDS011;47227;46.752;23.576;2023-12-04T05:05:50;28.00;;;13.80;;
61356;SDS011;47227;46.752;23.576;2023-12-04T05:08:19;21.10;;;11.30;;
61356;SDS011;47227;46.752;23.576;2023-12-04T05:10:47;18.90;;;10.60;;
61356;SDS011;47227;46.752;23.576;2023-12-04T05:13:16;25.70;;;12.20;;
61356;SDS011;47227;46.752;23.576;2023-12-04T05:15:44;16.80;;;9.60;;
61356;SDS011;47227;46.752;23.576;2023-12-04T05:18:13;16.50;;;8.60;;
61356;SDS011;47227;46.752;23.576;2023-12-04T05:20:41;18.40;;;11.00;;
61356;SDS011;47227;46.752;23.576;2023-12-04T05:23:10;23.60;;;12.50;;
61356;SDS011;47227;46.752;23.576;2023-12-04T05:25:38;19.40;;;11.20;;
61356;SDS011;47227;46.752;23.576;2023-12-04T05:28:15;14.40;;;9.10;;
61356;SDS011;47227;46.752;23.576;2023-12-04T05:30:43;16.70;;;9.60;;
61356;SDS011;47227;46.752;23.576;2023-12-04T05:33:12;15.00;;;9.20;;
61356;SDS011;47227;46.752;23.576;2023-12-04T05:35:41;19.90;;;10.60;;
61356;SDS011;47227;46.752;23.576;2023-12-04T05:38:09;18.60;;;10.50;;
61356;SDS011;47227;46.752;23.576;2023-12-04T05:40:38;18.30;;;10.20;;
61356;SDS011;47227;46.752;23.576;2023-12-04T05:43:06;19.50;;;9.30;;
61356;SDS011;47227;46.752;23.576;2023-12-04T05:45:35;19.30;;;10.70;;
61356;SDS011;47227;46.752;23.576;2023-12-04T05:48:04;20.40;;;10.60;;
61356;SDS011;47227;46.752;23.576;2023-12-04T05:50:33;21.90;;;10.70;;
61356;SDS011;47227;46.752;23.576;2023-12-04T05:53:02;28.90;;;14.40;;
61356;SDS011;47227;46.752;23.576;2023-12-04T05:55:30;19.00;;;10.60;;
61356;SDS011;47227;46.752;23.576;2023-12-04T05:57:59;19.00;;;10.00;;
61356;SDS011;47227;46.752;23.576;2023-12-04T06:00:28;16.50;;;9.30;;
61356;SDS011;47227;46.752;23.576;2023-12-04T06:02:56;17.90;;;10.00;;
61356;SDS011;47227;46.752;23.576;2023-12-04T06:05:25;17.90;;;10.70;;
61356;SDS011;47227;46.752;23.576;2023-12-04T06:07:54;18.90;;;10.10;;
61356;SDS011;47227;46.752;23.576;2023-12-04T06:10:22;17.40;;;9.20;;
61356;SDS011;47227;46.752;23.576;2023-12-04T06:12:50;20.80;;;11.70;;
61356;SDS011;47227;46.752;23.576;2023-12-04T06:15:19;19.10;;;9.80;;
61356;SDS011;47227;46.752;23.576;2023-12-04T06:17:48;22.20;;;11.10;;
61356;SDS011;47227;46.752;23.576;2023-12-04T06:20:16;18.60;;;10.40;;
61356;SDS011;47227;46.752;23.576;2023-12-04T06:22:45;20.50;;;10.70;;
61356;SDS011;47227;46.752;23.576;2023-12-04T06:25:14;19.00;;;9.20;;
61356;SDS011;47227;46.752;23.576;2023-12-04T06:27:43;18.00;;;9.70;;
61356;SDS011;47227;46.752;23.576;2023-12-04T06:30:13;17.00;;;9.90;;
61356;SDS011;47227;46.752;23.576;2023-12-04T06:32:42;16.90;;;9.60;;
61356;SDS011;47227;46.752;23.576;2023-12-04T06:35:11;16.60;;;10.80;;
61356;SDS011;47227;46.752;23.576;2023-12-04T06:37:42;20.70;;;11.10;;
61356;SDS011;47227;46.752;23.576;2023-12-04T06:40:11;16.40;;;9.50;;
61356;SDS011;47227;46.752;23.576;2023-12-04T06:42:41;14.30;;;8.90;;
61356;SDS011;47227;46.752;23.576;2023-12-04T06:45:10;15.60;;;8.00;;
61356;SDS011;47227;46.752;23.576;2023-12-04T06:47:40;17.40;;;9.10;;
61356;SDS011;47227;46.752;23.576;2023-12-04T06:50:11;44.50;;;18.10;;
61356;SDS011;47227;46.752;23.576;2023-12-04T06:52:40;46.80;;;20.60;;
61356;SDS011;47227;46.752;23.576;2023-12-04T06:55:08;49.10;;;21.80;;
61356;SDS011;47227;46.752;23.576;2023-12-04T06:57:37;18.80;;;10.70;;
61356;SDS011;47227;46.752;23.576;2023-12-04T07:00:06;15.20;;;8.30;;
61356;SDS011;47227;46.752;23.576;2023-12-04T07:02:49;14.60;;;8.40;;
61356;SDS011;47227;46.752;23.576;2023-12-04T07:05:19;14.00;;;8.00;;
61356;SDS011;47227;46.752;23.576;2023-12-04T07:07:49;13.60;;;8.60;;
61356;SDS011;47227;46.752;23.576;2023-12-04T07:10:17;14.70;;;8.70;;
61356;SDS011;47227;46.752;23.576;2023-12-04T07:12:46;13.60;;;7.80;;
61356;SDS011;47227;46.752;23.576;2023-12-04T07:15:15;18.10;;;9.50;;
61356;SDS011;47227;46.752;23.576;2023-12-04T07:17:44;13.40;;;8.10;;
61356;SDS011;47227;46.752;23.576;2023-12-04T07:20:12;19.70;;;10.60;;
61356;SDS011;47227;46.752;23.576;2023-12-04T07:22:41;20.10;;;11.10;;
61356;SDS011;47227;46.752;23.576;2023-12-04T07:25:09;17.00;;;9.30;;
61356;SDS011;47227;46.752;23.576;2023-12-04T07:27:38;16.70;;;8.40;;
61356;SDS011;47227;46.752;23.576;2023-12-04T07:30:07;16.30;;;9.20;;
61356;SDS011;47227;46.752;23.576;2023-12-04T07:32:36;17.90;;;9.80;;
61356;SDS011;47227;46.752;23.576;2023-12-04T07:35:05;18.70;;;10.10;;
61356;SDS011;47227;46.752;23.576;2023-12-04T07:37:34;18.10;;;9.30;;
61356;SDS011;47227;46.752;23.576;2023-12-04T07:40:03;13.00;;;8.70;;
61356;SDS011;47227;46.752;23.576;2023-12-04T07:42:34;13.70;;;7.90;;
61356;SDS011;47227;46.752;23.576;2023-12-04T07:45:02;14.70;;;9.20;;
61356;SDS011;47227;46.752;23.576;2023-12-04T07:47:31;20.10;;;9.70;;
61356;SDS011;47227;46.752;23.576;2023-12-04T07:50:00;17.00;;;8.80;;
61356;SDS011;47227;46.752;23.576;2023-12-04T07:52:28;18.10;;;9.70;;
61356;SDS011;47227;46.752;23.576;2023-12-04T07:54:58;17.00;;;9.60;;
61356;SDS011;47227;46.752;23.576;2023-12-04T07:57:27;14.30;;;8.60;;
61356;SDS011;47227;46.752;23.576;2023-12-04T07:59:55;15.00;;;9.00;;
61356;SDS011;47227;46.752;23.576;2023-12-04T08:02:24;18.80;;;10.30;;
61356;SDS011;47227;46.752;23.576;2023-12-04T08:04:52;18.90;;;10.10;;
61356;SDS011;47227;46.752;23.576;2023-12-04T08:07:21;16.30;;;9.80;;
61356;SDS011;47227;46.752;23.576;2023-12-04T08:09:49;17.90;;;9.80;;
61356;SDS011;47227;46.752;23.576;2023-12-04T08:12:18;13.60;;;8.50;;
61356;SDS011;47227;46.752;23.576;2023-12-04T08:14:47;20.20;;;10.80;;
61356;SDS011;47227;46.752;23.576;2023-12-04T08:17:16;18.80;;;10.60;;
61356;SDS011;47227;46.752;23.576;2023-12-04T08:19:44;18.20;;;10.00;;
61356;SDS011;47227;46.752;23.576;2023-12-04T08:22:16;16.50;;;9.70;;
61356;SDS011;47227;46.752;23.576;2023-12-04T08:24:45;16.60;;;10.20;;
61356;SDS011;47227;46.752;23.576;2023-12-04T08:27:13;19.40;;;10.50;;
61356;SDS011;47227;46.752;23.576;2023-12-04T08:29:42;16.80;;;10.10;;
61356;SDS011;47227;46.752;23.576;2023-12-04T08:32:10;27.30;;;11.10;;
61356;SDS011;47227;46.752;23.576;2023-12-04T08:34:39;16.10;;;9.40;;
61356;SDS011;47227;46.752;23.576;2023-12-04T08:37:07;17.50;;;10.00;;
61356;SDS011;47227;46.752;23.576;2023-12-04T08:39:36;17.80;;;9.90;;
61356;SDS011;47227;46.752;23.576;2023-12-04T08:42:04;16.00;;;9.00;;
61356;SDS011;47227;46.752;23.576;2023-12-04T08:44:39;15.40;;;9.20;;
61356;SDS011;47227;46.752;23.576;2023-12-04T08:47:08;18.30;;;10.00;;
61356;SDS011;47227;46.752;23.576;2023-12-04T08:49:36;15.70;;;9.60;;
61356;SDS011;47227;46.752;23.576;2023-12-04T08:52:15;16.70;;;9.80;;
61356;SDS011;47227;46.752;23.576;2023-12-04T08:54:44;17.00;;;9.60;;
61356;SDS011;47227;46.752;23.576;2023-12-04T08:57:13;14.70;;;9.20;;
61356;SDS011;47227;46.752;23.576;2023-12-04T08:59:41;14.60;;;9.40;;
61356;SDS011;47227;46.752;23.576;2023-12-04T09:02:10;15.70;;;9.10;;
61356;SDS011;47227;46.752;23.576;2023-12-04T09:04:41;13.70;;;8.50;;
61356;SDS011;47227;46.752;23.576;2023-12-04T09:07:10;17.70;;;9.60;;
61356;SDS011;47227;46.752;23.576;2023-12-04T09:09:59;13.60;;;8.30;;
61356;SDS011;47227;46.752;23.576;2023-12-04T09:12:37;14.50;;;9.00;;
61356;SDS011;47227;46.752;23.576;2023-12-04T09:15:06;13.50;;;9.00;;
61356;SDS011;47227;46.752;23.576;2023-12-04T09:17:36;10.80;;;8.40;;
61356;SDS011;47227;46.752;23.576;2023-12-04T09:20:07;12.70;;;8.10;;
61356;SDS011;47227;46.752;23.576;2023-12-04T09:22:37;14.40;;;8.70;;
61356;SDS011;47227;46.752;23.576;2023-12-04T09:25:19;13.90;;;8.30;;
61356;SDS011;47227;46.752;23.576;2023-12-04T09:27:48;12.40;;;7.80;;
61356;SDS011;47227;46.752;23.576;2023-12-04T09:30:17;14.80;;;9.10;;
61356;SDS011;47227;46.752;23.576;2023-12-04T09:32:46;13.10;;;8.80;;
61356;SDS011;47227;46.752;23.576;2023-12-04T09:35:15;14.70;;;8.50;;
61356;SDS011;47227;46.752;23.576;2023-12-04T09:37:43;15.90;;;9.00;;
61356;SDS011;47227;46.752;23.576;2023-12-04T09:40:13;14.70;;;8.30;;
61356;SDS011;47227;46.752;23.576;2023-12-04T09:42:42;11.10;;;7.80;;
61356;SDS011;47227;46.752;23.576;2023-12-04T09:45:11;9.40;;;7.00;;
61356;SDS011;47227;46.752;23.576;2023-12-04T09:47:41;11.30;;;7.20;;
61356;SDS011;47227;46.752;23.576;2023-12-04T09:50:11;14.70;;;7.60;;
61356;SDS011;47227;46.752;23.576;2023-12-04T09:52:40;11.80;;;8.10;;
61356;SDS011;47227;46.752;23.576;2023-12-04T09:55:09;13.20;;;8.80;;
61356;SDS011;47227;46.752;23.576;2023-12-04T09:57:38;18.00;;;8.30;;
61356;SDS011;47227;46.752;23.576;2023-12-04T10:00:06;13.40;;;8.40;;
61356;SDS011;47227;46.752;23.576;2023-12-04T10:02:40;10.90;;;8.00;;
61356;SDS011;47227;46.752;23.576;2023-12-04T10:05:10;11.50;;;8.40;;
61356;SDS011;47227;46.752;23.576;2023-12-04T10:07:38;9.40;;;7.30;;
61356;SDS011;47227;46.752;23.576;2023-12-04T10:10:10;10.40;;;7.90;;
61356;SDS011;47227;46.752;23.576;2023-12-04T10:12:38;11.40;;;7.30;;
61356;SDS011;47227;46.752;23.576;2023-12-04T10:15:08;10.40;;;7.30;;
61356;SDS011;47227;46.752;23.576;2023-12-04T10:17:39;11.00;;;7.40;;
61356;SDS011;47227;46.752;23.576;2023-12-04T10:20:11;9.40;;;6.90;;
61356;SDS011;47227;46.752;23.576;2023-12-04T10:22:54;9.10;;;7.30;;
61356;SDS011;47227;46.752;23.576;2023-12-04T10:25:30;8.00;;;7.00;;
61356;SDS011;47227;46.752;23.576;2023-12-04T10:30:40;11.20;;;7.50;;
61356;SDS011;47227;46.752;23.576;2023-12-04T10:33:09;10.30;;;7.10;;
61356;SDS011;47227;46.752;23.576;2023-12-04T10:35:38;6.80;;;5.90;;
61356;SDS011;47227;46.752;23.576;2023-12-04T10:38:07;5.10;;;4.20;;
61356;SDS011;47227;46.752;23.576;2023-12-04T10:40:37;5.10;;;4.10;;
61356;SDS011;47227;46.752;23.576;2023-12-04T10:45:37;4.30;;;3.90;;
61356;SDS011;47227;46.752;23.576;2023-12-04T10:48:10;7.90;;;4.90;;
61356;SDS011;47227;46.752;23.576;2023-12-04T10:50:40;5.80;;;4.40;;
61356;SDS011;47227;46.752;23.576;2023-12-04T10:53:12;6.30;;;4.40;;
61356;SDS011;47227;46.752;23.576;2023-12-04T10:55:42;6.30;;;4.50;;
61356;SDS011;47227;46.752;23.576;2023-12-04T10:58:14;5.20;;;3.90;;
61356;SDS011;47227;46.752;23.576;2023-12-04T11:00:44;4.40;;;4.00;;
61356;SDS011;47227;46.752;23.576;2023-12-04T11:03:18;6.20;;;4.00;;
61356;SDS011;47227;46.752;23.576;2023-12-04T11:05:49;7.00;;;4.50;;
61356;SDS011;47227;46.752;23.576;2023-12-04T11:08:25;6.90;;;5.10;;
61356;SDS011;47227;46.752;23.576;2023-12-04T11:11:15;5.90;;;4.60;;
61356;SDS011;47227;46.752;23.576;2023-12-04T11:13:48;5.70;;;4.50;;
61356;SDS011;47227;46.752;23.576;2023-12-04T11:16:22;4.40;;;3.80;;
61356;SDS011;47227;46.752;23.576;2023-12-04T11:22:03;5.30;;;3.70;;
61356;SDS011;47227;46.752;23.576;2023-12-04T11:24:35;4.80;;;4.00;;
61356;SDS011;47227;46.752;23.576;2023-12-04T11:27:04;6.10;;;4.70;;
61356;SDS011;47227;46.752;23.576;2023-12-04T11:29:33;6.60;;;4.70;;
61356;SDS011;47227;46.752;23.576;2023-12-04T11:32:05;5.40;;;4.60;;
61356;SDS011;47227;46.752;23.576;2023-12-04T11:34:35;6.10;;;4.70;;
61356;SDS011;47227;46.752;23.576;2023-12-04T11:37:05;5.60;;;4.60;;
61356;SDS011;47227;46.752;23.576;2023-12-04T11:39:33;6.00;;;4.90;;
61356;SDS011;47227;46.752;23.576;2023-12-04T11:42:05;6.40;;;5.20;;
61356;SDS011;47227;46.752;23.576;2023-12-04T11:44:34;5.30;;;4.70;;
61356;SDS011;47227;46.752;23.576;2023-12-04T11:47:05;9.70;;;7.00;;
61356;SDS011;47227;46.752;23.576;2023-12-04T11:49:34;9.10;;;7.60;;
61356;SDS011;47227;46.752;23.576;2023-12-04T11:52:04;9.70;;;8.20;;
61356;SDS011;47227;46.752;23.576;2023-12-04T11:57:23;7.90;;;5.90;;
61356;SDS011;47227;46.752;23.576;2023-12-04T12:08:12;6.40;;;5.40;;
61356;SDS011;47227;46.752;23.576;2023-12-04T12:10:40;7.80;;;5.50;;
61356;SDS011;47227;46.752;23.576;2023-12-04T12:13:10;6.50;;;5.50;;
61356;SDS011;47227;46.752;23.576;2023-12-04T12:15:39;7.50;;;5.10;;
61356;SDS011;47227;46.752;23.576;2023-12-04T12:18:08;6.10;;;5.00;;
61356;SDS011;47227;46.752;23.576;2023-12-04T12:20:39;8.00;;;5.80;;
61356;SDS011;47227;46.752;23.576;2023-12-04T12:23:07;6.50;;;5.30;;
61356;SDS011;47227;46.752;23.576;2023-12-04T12:25:36;6.80;;;5.50;;
61356;SDS011;47227;46.752;23.576;2023-12-04T12:28:06;7.90;;;5.70;;
61356;SDS011;47227;46.752;23.576;2023-12-04T12:30:35;10.40;;;5.70;;
61356;SDS011;47227;46.752;23.576;2023-12-04T12:33:04;6.50;;;5.40;;
61356;SDS011;47227;46.752;23.576;2023-12-04T12:35:33;6.80;;;5.30;;
61356;SDS011;47227;46.752;23.576;2023-12-04T12:38:02;7.90;;;5.30;;
61356;SDS011;47227;46.752;23.576;2023-12-04T12:40:31;7.40;;;5.10;;
61356;SDS011;47227;46.752;23.576;2023-12-04T12:43:06;8.30;;;5.90;;
61356;SDS011;47227;46.752;23.576;2023-12-04T12:45:44;6.30;;;5.60;;
61356;SDS011;47227;46.752;23.576;2023-12-04T12:48:16;7.60;;;5.70;;
61356;SDS011;47227;46.752;23.576;2023-12-04T12:50:45;6.30;;;5.50;;
61356;SDS011;47227;46.752;23.576;2023-12-04T12:53:17;7.80;;;5.90;;
61356;SDS011;47227;46.752;23.576;2023-12-04T12:55:45;7.40;;;6.10;;
61356;SDS011;47227;46.752;23.576;2023-12-04T12:58:16;7.10;;;5.90;;
61356;SDS011;47227;46.752;23.576;2023-12-04T13:00:48;11.70;;;5.70;;
61356;SDS011;47227;46.752;23.576;2023-12-04T13:03:18;6.50;;;5.70;;
61356;SDS011;47227;46.752;23.576;2023-12-04T13:05:47;7.30;;;5.50;;
61356;SDS011;47227;46.752;23.576;2023-12-04T13:08:16;9.30;;;5.70;;
61356;SDS011;47227;46.752;23.576;2023-12-04T13:10:45;13.20;;;6.50;;
61356;SDS011;47227;46.752;23.576;2023-12-04T13:13:15;8.00;;;6.20;;
61356;SDS011;47227;46.752;23.576;2023-12-04T13:15:43;7.20;;;5.40;;
61356;SDS011;47227;46.752;23.576;2023-12-04T13:18:12;10.00;;;7.10;;
61356;SDS011;47227;46.752;23.576;2023-12-04T13:20:40;12.90;;;7.40;;
61356;SDS011;47227;46.752;23.576;2023-12-04T13:23:09;9.30;;;6.40;;
61356;SDS011;47227;46.752;23.576;2023-12-04T13:25:37;11.50;;;7.10;;
61356;SDS011;47227;46.752;23.576;2023-12-04T13:28:06;7.40;;;6.30;;
61356;SDS011;47227;46.752;23.576;2023-12-04T13:30:38;8.60;;;6.50;;
61356;SDS011;47227;46.752;23.576;2023-12-04T13:33:07;16.50;;;7.10;;
61356;SDS011;47227;46.752;23.576;2023-12-04T13:35:36;12.10;;;7.00;;
61356;SDS011;47227;46.752;23.576;2023-12-04T13:38:04;17.20;;;9.10;;
61356;SDS011;47227;46.752;23.576;2023-12-04T13:40:43;11.50;;;7.70;;
61356;SDS011;47227;46.752;23.576;2023-12-04T13:43:27;12.30;;;7.20;;
61356;SDS011;47227;46.752;23.576;2023-12-04T13:46:14;11.30;;;7.50;;
61356;SDS011;47227;46.752;23.576;2023-12-04T13:48:43;9.50;;;6.60;;
61356;SDS011;47227;46.752;23.576;2023-12-04T13:51:12;10.00;;;7.60;;
61356;SDS011;47227;46.752;23.576;2023-12-04T13:53:41;12.90;;;7.20;;
61356;SDS011;47227;46.752;23.576;2023-12-04T13:56:13;9.70;;;7.50;;
61356;SDS011;47227;46.752;23.576;2023-12-04T13:59:00;10.00;;;6.60;;
61356;SDS011;47227;46.752;23.576;2023-12-04T14:01:31;10.70;;;7.30;;
61356;SDS011;47227;46.752;23.576;2023-12-04T14:04:00;10.80;;;7.40;;
61356;SDS011;47227;46.752;23.576;2023-12-04T14:06:32;10.90;;;6.80;;
61356;SDS011;47227;46.752;23.576;2023-12-04T14:09:01;11.70;;;7.00;;
61356;SDS011;47227;46.752;23.576;2023-12-04T14:11:32;15.90;;;7.30;;
61356;SDS011;47227;46.752;23.576;2023-12-04T14:14:01;9.80;;;7.00;;
61356;SDS011;47227;46.752;23.576;2023-12-04T14:16:30;9.50;;;7.30;;
61356;SDS011;47227;46.752;23.576;2023-12-04T14:18:59;10.40;;;7.20;;
61356;SDS011;47227;46.752;23.576;2023-12-04T14:21:28;12.70;;;8.00;;
61356;SDS011;47227;46.752;23.576;2023-12-04T14:23:57;12.40;;;8.10;;
61356;SDS011;47227;46.752;23.576;2023-12-04T14:26:25;12.00;;;8.30;;
61356;SDS011;47227;46.752;23.576;2023-12-04T14:28:54;11.80;;;7.60;;
61356;SDS011;47227;46.752;23.576;2023-12-04T14:31:24;11.80;;;7.90;;
61356;SDS011;47227;46.752;23.576;2023-12-04T14:33:53;15.90;;;8.60;;
61356;SDS011;47227;46.752;23.576;2023-12-04T14:36:22;19.10;;;8.10;;
61356;SDS011;47227;46.752;23.576;2023-12-04T14:38:50;11.70;;;8.40;;
61356;SDS011;47227;46.752;23.576;2023-12-04T14:41:19;13.00;;;8.60;;
61356;SDS011;47227;46.752;23.576;2023-12-04T14:43:47;9.70;;;7.40;;
61356;SDS011;47227;46.752;23.576;2023-12-04T14:46:16;11.60;;;8.50;;
61356;SDS011;47227;46.752;23.576;2023-12-04T14:48:45;13.20;;;8.90;;
61356;SDS011;47227;46.752;23.576;2023-12-04T14:51:14;12.30;;;8.90;;
61356;SDS011;47227;46.752;23.576;2023-12-04T14:53:42;18.70;;;8.40;;
61356;SDS011;47227;46.752;23.576;2023-12-04T14:56:11;15.00;;;9.30;;